createdAt,value
2023-05-10T00:01:14.616Z,98256.78
2023-05-10T00:05:33.125Z,98248.19
2023-05-10T00:09:50.885Z,98248.97
2023-05-10T00:14:08.498Z,98243.78
2023-05-10T00:18:26.190Z,98243.06
2023-05-10T00:22:43.809Z,98238.41
2023-05-10T00:27:02.190Z,98245.94
2023-05-10T00:31:19.839Z,98241.38
2023-05-10T00:35:40.259Z,98243.88
2023-05-10T00:39:57.887Z,98244.88
2023-05-10T00:44:15.621Z,98230.13
2023-05-10T00:48:33.350Z,98233.56
2023-05-10T00:52:51.739Z,98233.94
2023-05-10T00:57:09.876Z,98236.19
2023-05-10T01:01:27.745Z,98226.41
2023-05-10T01:05:45.364Z,98231.56
2023-05-10T01:10:03.419Z,98226.22
2023-05-10T01:14:21.600Z,98220.81
2023-05-10T01:18:43.399Z,98214.03
2023-05-10T01:23:28.506Z,98216.41
2023-05-10T01:28:39.868Z,98220.81
2023-05-10T01:33:18.892Z,98217.59
2023-05-10T01:37:58.183Z,98211.41
2023-05-10T01:42:22.484Z,98221.25
2023-05-10T01:46:41.562Z,98218.03
2023-05-10T01:50:59.933Z,98204.47
2023-05-10T01:55:21.657Z,98217.19
2023-05-10T01:59:41.990Z,98210.06
2023-05-10T02:04:01.306Z,98202.81
2023-05-10T02:08:20.104Z,98198.13
2023-05-10T02:12:43.517Z,98196.25
2023-05-10T02:17:03.171Z,98191.75
2023-05-10T02:21:23.824Z,98186.47
2023-05-10T02:25:43.885Z,98184.56
2023-05-10T02:30:02.693Z,98185.13
2023-05-10T02:34:22.815Z,98180.94
2023-05-10T02:38:41.753Z,98170.91
2023-05-10T02:43:02.665Z,98181.16
2023-05-10T02:47:21.123Z,98180.38
2023-05-10T02:51:44.892Z,98179.78
2023-05-10T02:56:08.301Z,98177.03
2023-05-10T03:00:27.195Z,98177.53
2023-05-10T03:04:45.010Z,98176.59
2023-05-10T03:09:04.511Z,98185.94
2023-05-10T03:13:37.657Z,98179.84
2023-05-10T03:18:39.836Z,98179.34
2023-05-10T03:23:27.899Z,98182.22
2023-05-10T03:27:46.531Z,98182.53
2023-05-10T03:32:04.475Z,98179.34
2023-05-10T03:36:22.323Z,98170.06
2023-05-10T03:40:40.634Z,98178.47
2023-05-10T03:44:58.401Z,98178.84
2023-05-10T03:49:15.870Z,98168.34
2023-05-10T03:53:33.760Z,98167.00
2023-05-10T03:57:51.391Z,98164.25
2023-05-10T04:02:09.317Z,98165.56
2023-05-10T04:06:27.149Z,98177.81
2023-05-10T04:10:44.996Z,98165.69
2023-05-10T04:15:02.833Z,98165.56
2023-05-10T04:19:20.609Z,98169.69
2023-05-10T04:23:39.595Z,98171.91
2023-05-10T04:27:57.340Z,98170.19
2023-05-10T04:32:15.056Z,98173.81
2023-05-10T04:36:33.934Z,98171.09
2023-05-10T04:40:52.007Z,98159.34
2023-05-10T04:45:11.238Z,98167.28
2023-05-10T04:49:29.279Z,98173.50
2023-05-10T04:53:57.663Z,98170.47
2023-05-10T04:58:22.799Z,98173.44
2023-05-10T05:02:49.526Z,98174.94
2023-05-10T05:07:07.276Z,98177.53
2023-05-10T05:11:25.224Z,98164.69
2023-05-10T05:15:42.900Z,98172.13
2023-05-10T05:20:00.654Z,98166.28
2023-05-10T05:24:18.318Z,98162.34
2023-05-10T05:28:38.619Z,98165.56
2023-05-10T05:32:56.355Z,98165.09
2023-05-10T05:37:19.289Z,98165.31
2023-05-10T05:41:37.014Z,98164.47
2023-05-10T05:45:55.274Z,98167.56
2023-05-10T05:50:13.009Z,98166.41
2023-05-10T05:54:32.330Z,98162.13
2023-05-10T05:58:50.848Z,98165.72
2023-05-10T06:03:09.224Z,98166.66
2023-05-10T06:07:26.983Z,98171.44
2023-05-10T06:11:44.762Z,98174.63
2023-05-10T06:16:04.074Z,98177.72
2023-05-10T06:20:21.781Z,98170.56
2023-05-10T06:24:39.388Z,98172.06
2023-05-10T06:28:57.844Z,98173.97
2023-05-10T06:33:17.145Z,98163.63
2023-05-10T06:37:35.805Z,98160.38
2023-05-10T06:41:53.689Z,98169.38
2023-05-10T06:46:11.570Z,98163.50
2023-05-10T06:50:28.675Z,98154.38
2023-05-10T06:54:46.510Z,98166.91
2023-05-10T06:59:04.273Z,98165.66
2023-05-10T07:03:22.176Z,98167.25
2023-05-10T07:07:39.933Z,98171.34
2023-05-10T07:11:59.223Z,98157.41
2023-05-10T07:16:16.934Z,98154.94
2023-05-10T07:20:34.848Z,98153.91
2023-05-10T07:24:52.766Z,98163.41
2023-05-10T07:29:11.381Z,98156.66
2023-05-10T07:33:28.997Z,98164.56
2023-05-10T07:37:46.731Z,98151.91
2023-05-10T07:42:04.502Z,98151.31
2023-05-10T07:46:22.404Z,98156.88
2023-05-10T07:50:40.100Z,98151.34
2023-05-10T07:54:58.349Z,98161.19
2023-05-10T07:59:18.234Z,98155.66
2023-05-10T08:03:36.292Z,98150.88
2023-05-10T08:07:53.872Z,98147.41
2023-05-10T08:12:11.580Z,98144.91
2023-05-10T08:16:30.180Z,98146.94
2023-05-10T08:20:47.865Z,98149.44
2023-05-10T08:25:06.565Z,98153.63
2023-05-10T08:29:25.356Z,98153.19
2023-05-10T08:33:45.948Z,98155.56
2023-05-10T08:38:03.452Z,98157.16
2023-05-10T08:42:26.278Z,98156.38
2023-05-10T08:46:47.449Z,98154.44
2023-05-10T08:51:05.729Z,98160.31
2023-05-10T08:55:25.150Z,98163.88
2023-05-10T08:59:42.917Z,98164.00
2023-05-10T09:04:00.699Z,98164.41
2023-05-10T09:08:18.994Z,98168.50
2023-05-10T09:12:37.061Z,98160.56
2023-05-10T09:16:56.699Z,98175.66
2023-05-10T09:21:15.009Z,98164.78
2023-05-10T09:25:34.942Z,98174.19
2023-05-10T09:29:55.553Z,98175.25
2023-05-10T09:34:20.717Z,98168.06
2023-05-10T09:38:53.825Z,98165.16
2023-05-10T09:43:12.372Z,98168.84
2023-05-10T09:47:29.885Z,98170.22
2023-05-10T09:51:48.011Z,98169.88
2023-05-10T09:56:05.632Z,98163.97
2023-05-10T10:00:23.330Z,98168.84
2023-05-10T10:04:42.001Z,98165.91
2023-05-10T10:09:00.217Z,98169.06
2023-05-10T10:13:18.478Z,98164.97
2023-05-10T10:17:39.880Z,98164.06
2023-05-10T10:21:57.491Z,98151.56
2023-05-10T10:26:16.660Z,98151.31
2023-05-10T10:30:38.547Z,98146.91
2023-05-10T10:34:57.948Z,98148.44
2023-05-10T10:39:16.297Z,98160.75
2023-05-10T10:43:34.127Z,98176.84
2023-05-10T10:48:24.139Z,98167.34
2023-05-10T10:52:43.620Z,98145.53
2023-05-10T10:57:14.873Z,98155.03
2023-05-10T11:01:36.795Z,98158.50
2023-05-10T11:05:59.854Z,98136.84
2023-05-10T11:10:22.543Z,98130.81
2023-05-10T11:14:41.321Z,98157.00
2023-05-10T11:19:09.544Z,98162.72
2023-05-10T11:23:33.343Z,98142.19
2023-05-10T11:27:51.546Z,98155.91
2023-05-10T11:32:09.387Z,98166.31
2023-05-10T11:36:37.613Z,98149.22
2023-05-10T11:40:55.197Z,98157.47
2023-05-10T11:45:13.197Z,98125.53
2023-05-10T11:49:31.000Z,98099.59
2023-05-10T11:53:48.934Z,98132.16
2023-05-10T11:58:07.580Z,98185.41
2023-05-10T12:02:26.002Z,98235.91
2023-05-10T12:06:43.907Z,98117.03
2023-05-10T12:11:11.834Z,98196.09
2023-05-10T12:15:29.326Z,98214.19
2023-05-10T12:19:47.715Z,98200.69
2023-05-10T12:24:06.257Z,98187.56
2023-05-10T12:28:24.147Z,98185.41
2023-05-10T12:32:45.570Z,98172.25
2023-05-10T12:37:05.399Z,98156.22
2023-05-10T12:41:22.976Z,98143.47
2023-05-10T12:45:40.788Z,98121.75
2023-05-10T12:49:58.465Z,98100.88
2023-05-10T12:54:16.157Z,98068.63
2023-05-10T12:58:36.055Z,98055.06
2023-05-10T13:02:54.862Z,98038.31
2023-05-10T13:07:12.528Z,98056.84
2023-05-10T13:11:30.288Z,98157.00
2023-05-10T13:15:47.893Z,98243.72
2023-05-10T13:20:06.278Z,98353.88
2023-05-10T13:24:23.877Z,98492.75
2023-05-10T13:28:41.965Z,98635.59
2023-05-10T13:32:59.521Z,98795.75
2023-05-10T13:37:17.407Z,99033.00
2023-05-10T13:41:35.190Z,99201.81
2023-05-10T13:45:53.699Z,99442.19
2023-05-10T13:50:11.454Z,99759.28
2023-05-10T13:54:31.640Z,99899.19
2023-05-10T13:58:49.273Z,99933.22
2023-05-10T14:03:08.196Z,99812.72
2023-05-10T14:07:25.824Z,99414.59
2023-05-10T14:11:44.561Z,99448.41
2023-05-10T14:16:02.283Z,99434.13
2023-05-10T14:20:20.017Z,98623.56
2023-05-10T14:24:39.524Z,98960.50
2023-05-10T14:28:57.520Z,98078.78
2023-05-10T14:33:15.546Z,98083.97
2023-05-10T14:37:33.866Z,98060.22
2023-05-10T14:41:52.640Z,98037.75
2023-05-10T14:46:10.593Z,98050.28
2023-05-10T14:50:36.503Z,98043.47
2023-05-10T14:54:55.133Z,98033.78
2023-05-10T14:59:12.646Z,98034.41
2023-05-10T15:03:31.774Z,98029.06
2023-05-10T15:07:49.852Z,98017.50
2023-05-10T15:12:07.644Z,98014.31
2023-05-10T15:16:25.515Z,98016.63
2023-05-10T15:20:43.372Z,97997.50
2023-05-10T15:25:00.962Z,97992.91
2023-05-10T15:29:21.290Z,97997.28
2023-05-10T15:33:39.753Z,97995.22
2023-05-10T15:37:57.601Z,97993.94
2023-05-10T15:42:15.163Z,97995.94
2023-05-10T15:46:32.750Z,97995.88
2023-05-10T15:50:50.585Z,97999.13
2023-05-10T15:55:13.347Z,97993.88
2023-05-10T15:59:31.148Z,97999.81
2023-05-10T16:03:48.968Z,97993.38
2023-05-10T16:08:06.538Z,97995.66
2023-05-10T16:12:23.929Z,97989.69
2023-05-10T16:16:41.614Z,97996.69
2023-05-10T16:20:59.726Z,97993.69
2023-05-10T16:25:17.385Z,97995.78
2023-05-10T16:29:35.396Z,98000.56
2023-05-10T16:33:53.025Z,97989.91
2023-05-10T16:38:11.616Z,97992.00
2023-05-10T16:42:29.245Z,97999.75
2023-05-10T16:46:47.245Z,97997.34
2023-05-10T16:51:04.950Z,97991.28
2023-05-10T16:55:25.473Z,98000.66
2023-05-10T16:59:44.050Z,98005.38
2023-05-10T17:04:03.000Z,98008.66
2023-05-10T17:08:21.855Z,98006.00
2023-05-10T17:12:39.585Z,98015.13
2023-05-10T17:16:57.343Z,98010.53
2023-05-10T17:21:15.140Z,98013.50
2023-05-10T17:25:32.722Z,98014.41
2023-05-10T17:29:50.405Z,98013.50
2023-05-10T17:34:08.311Z,98016.41
2023-05-10T17:38:26.194Z,98014.78
2023-05-10T17:42:43.925Z,98024.06
2023-05-10T17:47:02.241Z,98021.31
2023-05-10T17:51:20.879Z,98025.28
2023-05-10T17:55:42.396Z,98026.56
2023-05-10T18:00:00.220Z,98033.69
2023-05-10T18:04:18.038Z,98030.88
2023-05-10T18:08:38.790Z,98042.56
2023-05-10T18:12:58.720Z,98037.22
2023-05-10T18:17:16.714Z,98045.88
2023-05-10T18:21:34.554Z,98050.84
2023-05-10T18:25:52.625Z,98052.75
2023-05-10T18:30:12.601Z,98057.31
2023-05-10T18:34:30.387Z,98069.00
2023-05-10T18:38:48.123Z,98066.50
2023-05-10T18:43:23.771Z,98068.56
2023-05-10T18:47:41.537Z,98080.31
2023-05-10T18:51:59.411Z,98081.91
2023-05-10T18:56:17.040Z,98084.41
2023-05-10T19:00:34.774Z,98085.44
2023-05-10T19:04:52.516Z,98090.06
2023-05-10T19:09:10.278Z,98090.66
2023-05-10T19:13:29.034Z,98093.16
2023-05-10T19:17:46.797Z,98095.75
2023-05-10T19:22:04.837Z,98098.13
2023-05-10T19:26:22.714Z,98101.75
2023-05-10T19:30:40.233Z,98106.38
2023-05-10T19:34:58.053Z,98103.69
2023-05-10T19:39:16.856Z,98097.53
2023-05-10T19:43:37.002Z,98094.13
2023-05-10T19:47:54.966Z,98097.34
2023-05-10T19:52:12.848Z,98103.78
2023-05-10T19:56:33.442Z,98110.91
2023-05-10T20:00:51.282Z,98113.22
2023-05-10T20:05:09.349Z,98112.53
2023-05-10T20:09:27.202Z,98116.25
2023-05-10T20:13:44.753Z,98102.19
2023-05-10T20:18:03.934Z,98109.69
2023-05-10T20:22:21.549Z,98115.34
2023-05-10T20:26:39.369Z,98101.06
2023-05-10T20:30:56.908Z,98101.41
2023-05-10T20:35:14.543Z,98105.03
2023-05-10T20:39:32.081Z,98108.78
2023-05-10T20:43:49.835Z,98101.41
2023-05-10T20:48:07.906Z,98108.53
2023-05-10T20:52:25.608Z,98102.09
2023-05-10T20:56:43.203Z,98110.72
2023-05-10T21:01:02.563Z,98113.84
2023-05-10T21:05:20.191Z,98112.03
2023-05-10T21:09:37.981Z,98115.13
2023-05-10T21:13:55.502Z,98113.22
2023-05-10T21:18:13.677Z,98117.38
2023-05-10T21:22:31.090Z,98111.25
2023-05-10T21:26:48.789Z,98108.66
2023-05-10T21:31:06.716Z,98104.47
2023-05-10T21:35:24.360Z,98103.91
2023-05-10T21:39:41.839Z,98097.88
2023-05-10T21:43:59.556Z,98105.81
2023-05-10T21:48:17.536Z,98105.94
2023-05-10T21:52:35.193Z,98108.78
2023-05-10T21:56:53.045Z,98102.28
2023-05-10T22:01:10.886Z,98113.50
2023-05-10T22:05:28.398Z,98111.03
2023-05-10T22:09:46.133Z,98112.16
2023-05-10T22:14:03.712Z,98116.25
2023-05-10T22:18:21.552Z,98114.66
2023-05-10T22:22:39.161Z,98119.06
2023-05-10T22:26:56.777Z,98111.72
2023-05-10T22:31:14.617Z,98117.72
2023-05-10T22:35:32.263Z,98119.19
2023-05-10T22:39:50.069Z,98117.59
2023-05-10T22:44:08.626Z,98120.22
2023-05-10T22:48:26.278Z,98126.75
2023-05-10T22:52:44.037Z,98125.41
2023-05-10T22:57:01.606Z,98123.81
2023-05-10T23:01:19.389Z,98123.81
2023-05-10T23:05:36.975Z,98131.06
2023-05-10T23:09:54.668Z,98127.69
2023-05-10T23:14:12.177Z,98137.31
2023-05-10T23:18:31.093Z,98140.56
2023-05-10T23:22:49.740Z,98138.97
2023-05-10T23:27:07.808Z,98136.63
2023-05-10T23:31:25.332Z,98135.59
2023-05-10T23:35:42.941Z,98133.34
2023-05-10T23:40:00.468Z,98142.25
2023-05-10T23:44:19.181Z,98141.13
2023-05-10T23:48:36.423Z,98144.06
2023-05-10T23:52:54.489Z,98131.25
2023-05-10T23:57:14.972Z,98130.59
